sensor_id;sensor_type;location;lat;lon;timestamp;P1;durP1;ratioP1;P2;durP2;ratioP2
40827;SDS011;26549;50.918;5.338;2024-01-30T00:01:54;7.03;;;4.60;;
40827;SDS011;26549;50.918;5.338;2024-01-30T00:04:21;6.30;;;4.60;;
40827;SDS011;26549;50.918;5.338;2024-01-30T00:06:48;10.32;;;4.80;;
40827;SDS011;26549;50.918;5.338;2024-01-30T00:09:13;6.50;;;4.50;;
40827;SDS011;26549;50.918;5.338;2024-01-30T00:11:40;4.68;;;3.97;;
40827;SDS011;26549;50.918;5.338;2024-01-30T00:14:08;6.00;;;4.80;;
40827;SDS011;26549;50.918;5.338;2024-01-30T00:16:34;4.40;;;3.50;;
40827;SDS011;26549;50.918;5.338;2024-01-30T00:19:01;7.50;;;4.80;;
40827;SDS011;26549;50.918;5.338;2024-01-30T00:21:28;5.60;;;3.80;;
40827;SDS011;26549;50.918;5.338;2024-01-30T00:23:55;6.63;;;4.97;;
40827;SDS011;26549;50.918;5.338;2024-01-30T00:26:21;6.05;;;3.70;;
40827;SDS011;26549;50.918;5.338;2024-01-30T00:28:48;4.90;;;4.22;;
40827;SDS011;26549;50.918;5.338;2024-01-30T00:31:13;6.55;;;3.90;;
40827;SDS011;26549;50.918;5.338;2024-01-30T00:33:40;5.95;;;3.67;;
40827;SDS011;26549;50.918;5.338;2024-01-30T00:36:07;5.80;;;3.90;;
40827;SDS011;26549;50.918;5.338;2024-01-30T00:38:34;6.68;;;4.50;;
40827;SDS011;26549;50.918;5.338;2024-01-30T00:41:00;5.88;;;4.70;;
40827;SDS011;26549;50.918;5.338;2024-01-30T00:43:28;6.78;;;3.75;;
40827;SDS011;26549;50.918;5.338;2024-01-30T00:45:56;7.05;;;3.85;;
40827;SDS011;26549;50.918;5.338;2024-01-30T00:48:22;4.75;;;3.50;;
40827;SDS011;26549;50.918;5.338;2024-01-30T00:53:17;8.90;;;4.32;;
40827;SDS011;26549;50.918;5.338;2024-01-30T00:55:45;6.28;;;3.65;;
40827;SDS011;26549;50.918;5.338;2024-01-30T00:58:11;6.65;;;4.38;;
40827;SDS011;26549;50.918;5.338;2024-01-30T01:00:38;5.68;;;3.90;;
40827;SDS011;26549;50.918;5.338;2024-01-30T01:03:04;8.55;;;4.20;;
40827;SDS011;26549;50.918;5.338;2024-01-30T01:05:30;7.72;;;4.05;;
40827;SDS011;26549;50.918;5.338;2024-01-30T01:07:56;9.13;;;4.30;;
40827;SDS011;26549;50.918;5.338;2024-01-30T01:10:22;7.15;;;4.57;;
40827;SDS011;26549;50.918;5.338;2024-01-30T01:12:48;6.25;;;4.18;;
40827;SDS011;26549;50.918;5.338;2024-01-30T01:15:14;9.85;;;3.65;;
40827;SDS011;26549;50.918;5.338;2024-01-30T01:17:42;6.35;;;4.13;;
40827;SDS011;26549;50.918;5.338;2024-01-30T01:20:09;7.47;;;3.70;;
40827;SDS011;26549;50.918;5.338;2024-01-30T01:22:38;5.07;;;3.67;;
40827;SDS011;26549;50.918;5.338;2024-01-30T01:25:05;6.18;;;3.63;;
40827;SDS011;26549;50.918;5.338;2024-01-30T01:27:33;6.90;;;3.50;;
40827;SDS011;26549;50.918;5.338;2024-01-30T01:30:00;6.43;;;3.97;;
40827;SDS011;26549;50.918;5.338;2024-01-30T01:32:26;6.93;;;4.05;;
40827;SDS011;26549;50.918;5.338;2024-01-30T01:34:52;8.20;;;4.05;;
40827;SDS011;26549;50.918;5.338;2024-01-30T01:37:18;6.40;;;3.63;;
40827;SDS011;26549;50.918;5.338;2024-01-30T01:39:46;9.00;;;3.92;;
40827;SDS011;26549;50.918;5.338;2024-01-30T01:42:12;5.55;;;3.28;;
40827;SDS011;26549;50.918;5.338;2024-01-30T01:44:39;8.63;;;4.25;;
40827;SDS011;26549;50.918;5.338;2024-01-30T01:47:06;5.60;;;4.10;;
40827;SDS011;26549;50.918;5.338;2024-01-30T01:49:31;7.93;;;4.57;;
40827;SDS011;26549;50.918;5.338;2024-01-30T01:51:58;4.93;;;4.00;;
40827;SDS011;26549;50.918;5.338;2024-01-30T01:54:26;4.85;;;3.25;;
40827;SDS011;26549;50.918;5.338;2024-01-30T01:56:52;6.70;;;3.65;;
40827;SDS011;26549;50.918;5.338;2024-01-30T01:59:19;8.02;;;4.50;;
40827;SDS011;26549;50.918;5.338;2024-01-30T02:01:46;5.15;;;3.63;;
40827;SDS011;26549;50.918;5.338;2024-01-30T02:04:15;4.25;;;3.47;;
40827;SDS011;26549;50.918;5.338;2024-01-30T02:06:43;4.93;;;3.13;;
40827;SDS011;26549;50.918;5.338;2024-01-30T02:09:09;6.43;;;3.28;;
40827;SDS011;26549;50.918;5.338;2024-01-30T02:11:36;4.88;;;3.50;;
40827;SDS011;26549;50.918;5.338;2024-01-30T02:14:03;6.55;;;3.63;;
40827;SDS011;26549;50.918;5.338;2024-01-30T02:16:31;6.25;;;3.95;;
40827;SDS011;26549;50.918;5.338;2024-01-30T02:18:58;4.93;;;3.03;;
40827;SDS011;26549;50.918;5.338;2024-01-30T02:21:26;7.28;;;4.53;;
40827;SDS011;26549;50.918;5.338;2024-01-30T02:23:53;4.43;;;3.28;;
40827;SDS011;26549;50.918;5.338;2024-01-30T02:26:20;5.25;;;3.38;;
40827;SDS011;26549;50.918;5.338;2024-01-30T02:28:47;6.70;;;3.35;;
40827;SDS011;26549;50.918;5.338;2024-01-30T02:31:13;4.18;;;3.13;;
40827;SDS011;26549;50.918;5.338;2024-01-30T02:33:41;4.75;;;2.97;;
40827;SDS011;26549;50.918;5.338;2024-01-30T02:36:08;4.97;;;3.33;;
40827;SDS011;26549;50.918;5.338;2024-01-30T02:38:34;5.43;;;4.10;;
40827;SDS011;26549;50.918;5.338;2024-01-30T02:41:01;4.13;;;3.22;;
40827;SDS011;26549;50.918;5.338;2024-01-30T02:43:29;6.95;;;4.05;;
40827;SDS011;26549;50.918;5.338;2024-01-30T02:45:55;8.48;;;3.90;;
40827;SDS011;26549;50.918;5.338;2024-01-30T02:48:24;4.45;;;2.90;;
40827;SDS011;26549;50.918;5.338;2024-01-30T02:50:50;4.53;;;2.80;;
40827;SDS011;26549;50.918;5.338;2024-01-30T02:53:18;4.70;;;3.20;;
40827;SDS011;26549;50.918;5.338;2024-01-30T02:55:44;6.45;;;3.00;;
40827;SDS011;26549;50.918;5.338;2024-01-30T02:58:10;4.95;;;3.05;;
40827;SDS011;26549;50.918;5.338;2024-01-30T03:00:37;7.55;;;3.10;;
40827;SDS011;26549;50.918;5.338;2024-01-30T03:03:03;3.90;;;2.83;;
40827;SDS011;26549;50.918;5.338;2024-01-30T03:05:29;5.28;;;3.10;;
40827;SDS011;26549;50.918;5.338;2024-01-30T03:07:57;4.10;;;2.72;;
40827;SDS011;26549;50.918;5.338;2024-01-30T03:10:24;5.45;;;3.17;;
40827;SDS011;26549;50.918;5.338;2024-01-30T03:12:49;6.20;;;2.92;;
40827;SDS011;26549;50.918;5.338;2024-01-30T03:15:15;3.60;;;2.47;;
40827;SDS011;26549;50.918;5.338;2024-01-30T03:17:41;5.25;;;3.42;;
40827;SDS011;26549;50.918;5.338;2024-01-30T03:20:07;5.53;;;2.80;;
40827;SDS011;26549;50.918;5.338;2024-01-30T03:22:34;6.05;;;2.63;;
40827;SDS011;26549;50.918;5.338;2024-01-30T03:25:00;6.38;;;3.65;;
40827;SDS011;26549;50.918;5.338;2024-01-30T03:27:27;6.07;;;3.42;;
40827;SDS011;26549;50.918;5.338;2024-01-30T03:29:54;4.22;;;2.50;;
40827;SDS011;26549;50.918;5.338;2024-01-30T03:32:20;11.27;;;3.00;;
40827;SDS011;26549;50.918;5.338;2024-01-30T03:34:48;5.18;;;3.15;;
40827;SDS011;26549;50.918;5.338;2024-01-30T03:37:14;6.82;;;3.45;;
40827;SDS011;26549;50.918;5.338;2024-01-30T03:39:41;8.75;;;3.45;;
40827;SDS011;26549;50.918;5.338;2024-01-30T03:44:35;4.03;;;2.65;;
40827;SDS011;26549;50.918;5.338;2024-01-30T03:47:02;5.82;;;3.28;;
40827;SDS011;26549;50.918;5.338;2024-01-30T03:49:29;9.95;;;3.40;;
40827;SDS011;26549;50.918;5.338;2024-01-30T03:51:55;5.10;;;3.05;;
40827;SDS011;26549;50.918;5.338;2024-01-30T03:54:20;3.47;;;2.63;;
40827;SDS011;26549;50.918;5.338;2024-01-30T03:56:48;4.18;;;3.00;;
40827;SDS011;26549;50.918;5.338;2024-01-30T03:59:15;5.63;;;2.80;;
40827;SDS011;26549;50.918;5.338;2024-01-30T04:01:42;6.00;;;3.45;;
40827;SDS011;26549;50.918;5.338;2024-01-30T04:04:09;5.25;;;3.05;;
40827;SDS011;26549;50.918;5.338;2024-01-30T04:09:03;2.95;;;2.65;;
40827;SDS011;26549;50.918;5.338;2024-01-30T04:11:30;5.38;;;3.10;;
40827;SDS011;26549;50.918;5.338;2024-01-30T04:13:57;3.22;;;2.53;;
40827;SDS011;26549;50.918;5.338;2024-01-30T04:16:25;3.83;;;2.88;;
40827;SDS011;26549;50.918;5.338;2024-01-30T04:18:51;5.65;;;3.00;;
40827;SDS011;26549;50.918;5.338;2024-01-30T04:21:20;5.20;;;2.88;;
40827;SDS011;26549;50.918;5.338;2024-01-30T04:23:46;5.15;;;3.15;;
40827;SDS011;26549;50.918;5.338;2024-01-30T04:26:13;4.10;;;2.40;;
40827;SDS011;26549;50.918;5.338;2024-01-30T04:28:41;5.03;;;2.85;;
40827;SDS011;26549;50.918;5.338;2024-01-30T04:31:08;4.75;;;2.60;;
40827;SDS011;26549;50.918;5.338;2024-01-30T04:33:34;4.82;;;3.10;;
40827;SDS011;26549;50.918;5.338;2024-01-30T04:35:59;7.60;;;3.17;;
40827;SDS011;26549;50.918;5.338;2024-01-30T04:38:25;4.30;;;2.65;;
40827;SDS011;26549;50.918;5.338;2024-01-30T04:40:52;3.70;;;2.75;;
40827;SDS011;26549;50.918;5.338;2024-01-30T04:43:18;4.22;;;2.88;;
40827;SDS011;26549;50.918;5.338;2024-01-30T04:45:44;4.13;;;2.55;;
40827;SDS011;26549;50.918;5.338;2024-01-30T04:48:09;5.30;;;2.88;;
40827;SDS011;26549;50.918;5.338;2024-01-30T04:50:36;4.57;;;3.10;;
40827;SDS011;26549;50.918;5.338;2024-01-30T04:53:03;3.33;;;2.65;;
40827;SDS011;26549;50.918;5.338;2024-01-30T04:55:30;4.35;;;3.00;;
40827;SDS011;26549;50.918;5.338;2024-01-30T04:57:56;6.15;;;2.75;;
40827;SDS011;26549;50.918;5.338;2024-01-30T05:00:22;6.10;;;3.17;;
40827;SDS011;26549;50.918;5.338;2024-01-30T05:02:48;10.15;;;3.47;;
40827;SDS011;26549;50.918;5.338;2024-01-30T05:05:14;6.43;;;2.45;;
40827;SDS011;26549;50.918;5.338;2024-01-30T05:07:40;4.63;;;3.45;;
40827;SDS011;26549;50.918;5.338;2024-01-30T05:10:06;6.05;;;3.03;;
40827;SDS011;26549;50.918;5.338;2024-01-30T05:12:36;4.70;;;3.20;;
40827;SDS011;26549;50.918;5.338;2024-01-30T05:15:05;3.72;;;2.90;;
40827;SDS011;26549;50.918;5.338;2024-01-30T05:17:32;3.60;;;2.80;;
40827;SDS011;26549;50.918;5.338;2024-01-30T05:19:58;5.15;;;3.65;;
40827;SDS011;26549;50.918;5.338;2024-01-30T05:22:25;6.63;;;3.35;;
40827;SDS011;26549;50.918;5.338;2024-01-30T05:24:50;4.55;;;2.67;;
40827;SDS011;26549;50.918;5.338;2024-01-30T05:27:17;4.47;;;3.17;;
40827;SDS011;26549;50.918;5.338;2024-01-30T05:29:43;5.45;;;3.35;;
40827;SDS011;26549;50.918;5.338;2024-01-30T05:32:10;5.93;;;3.08;;
40827;SDS011;26549;50.918;5.338;2024-01-30T05:34:35;6.50;;;3.22;;
40827;SDS011;26549;50.918;5.338;2024-01-30T05:37:01;4.68;;;3.03;;
40827;SDS011;26549;50.918;5.338;2024-01-30T05:39:29;6.97;;;3.35;;
40827;SDS011;26549;50.918;5.338;2024-01-30T05:41:59;4.47;;;2.92;;
40827;SDS011;26549;50.918;5.338;2024-01-30T05:44:26;5.93;;;3.40;;
40827;SDS011;26549;50.918;5.338;2024-01-30T05:46:52;5.07;;;2.67;;
40827;SDS011;26549;50.918;5.338;2024-01-30T05:49:18;8.35;;;3.90;;
40827;SDS011;26549;50.918;5.338;2024-01-30T05:51:44;6.65;;;3.63;;
40827;SDS011;26549;50.918;5.338;2024-01-30T05:54:10;7.82;;;3.47;;
40827;SDS011;26549;50.918;5.338;2024-01-30T05:56:36;5.55;;;3.38;;
40827;SDS011;26549;50.918;5.338;2024-01-30T05:59:03;4.35;;;2.92;;
40827;SDS011;26549;50.918;5.338;2024-01-30T06:01:29;5.43;;;3.47;;
40827;SDS011;26549;50.918;5.338;2024-01-30T06:03:55;5.15;;;3.33;;
40827;SDS011;26549;50.918;5.338;2024-01-30T06:06:20;4.88;;;3.05;;
40827;SDS011;26549;50.918;5.338;2024-01-30T06:08:46;4.20;;;2.80;;
40827;SDS011;26549;50.918;5.338;2024-01-30T06:11:13;6.57;;;2.90;;
40827;SDS011;26549;50.918;5.338;2024-01-30T06:13:40;4.82;;;3.30;;
40827;SDS011;26549;50.918;5.338;2024-01-30T06:16:09;5.72;;;3.75;;
40827;SDS011;26549;50.918;5.338;2024-01-30T06:18:36;4.97;;;2.85;;
40827;SDS011;26549;50.918;5.338;2024-01-30T06:21:03;5.68;;;2.58;;
40827;SDS011;26549;50.918;5.338;2024-01-30T06:23:29;5.05;;;4.10;;
40827;SDS011;26549;50.918;5.338;2024-01-30T06:25:55;4.65;;;3.15;;
40827;SDS011;26549;50.918;5.338;2024-01-30T06:28:21;4.82;;;2.90;;
40827;SDS011;26549;50.918;5.338;2024-01-30T06:30:48;4.28;;;3.22;;
40827;SDS011;26549;50.918;5.338;2024-01-30T06:33:14;5.43;;;3.20;;
40827;SDS011;26549;50.918;5.338;2024-01-30T06:35:40;3.10;;;2.63;;
40827;SDS011;26549;50.918;5.338;2024-01-30T06:38:07;4.32;;;3.63;;
40827;SDS011;26549;50.918;5.338;2024-01-30T06:40:32;4.53;;;3.03;;
40827;SDS011;26549;50.918;5.338;2024-01-30T06:42:59;3.85;;;3.22;;
40827;SDS011;26549;50.918;5.338;2024-01-30T06:47:53;3.92;;;3.25;;
40827;SDS011;26549;50.918;5.338;2024-01-30T06:50:20;4.75;;;3.47;;
40827;SDS011;26549;50.918;5.338;2024-01-30T06:52:46;4.70;;;3.20;;
40827;SDS011;26549;50.918;5.338;2024-01-30T06:55:12;5.68;;;3.45;;
40827;SDS011;26549;50.918;5.338;2024-01-30T06:57:37;4.10;;;2.97;;
40827;SDS011;26549;50.918;5.338;2024-01-30T07:00:03;5.68;;;3.10;;
40827;SDS011;26549;50.918;5.338;2024-01-30T07:02:29;6.22;;;3.00;;
40827;SDS011;26549;50.918;5.338;2024-01-30T07:04:56;3.65;;;2.70;;
40827;SDS011;26549;50.918;5.338;2024-01-30T07:07:22;4.82;;;3.08;;
40827;SDS011;26549;50.918;5.338;2024-01-30T07:09:49;4.40;;;3.55;;
40827;SDS011;26549;50.918;5.338;2024-01-30T07:12:17;5.47;;;3.35;;
40827;SDS011;26549;50.918;5.338;2024-01-30T07:14:43;5.32;;;3.17;;
40827;SDS011;26549;50.918;5.338;2024-01-30T07:17:09;5.57;;;3.08;;
40827;SDS011;26549;50.918;5.338;2024-01-30T07:19:34;4.65;;;3.50;;
40827;SDS011;26549;50.918;5.338;2024-01-30T07:22:00;5.13;;;3.38;;
40827;SDS011;26549;50.918;5.338;2024-01-30T07:24:26;4.50;;;3.08;;
40827;SDS011;26549;50.918;5.338;2024-01-30T07:26:52;6.88;;;3.25;;
40827;SDS011;26549;50.918;5.338;2024-01-30T07:29:18;5.97;;;3.45;;
40827;SDS011;26549;50.918;5.338;2024-01-30T07:31:44;4.55;;;2.90;;
40827;SDS011;26549;50.918;5.338;2024-01-30T07:34:09;5.35;;;3.00;;
40827;SDS011;26549;50.918;5.338;2024-01-30T07:36:35;3.45;;;2.63;;
40827;SDS011;26549;50.918;5.338;2024-01-30T07:39:01;7.72;;;3.40;;
40827;SDS011;26549;50.918;5.338;2024-01-30T07:43:58;3.60;;;3.30;;
40827;SDS011;26549;50.918;5.338;2024-01-30T07:46:24;4.65;;;3.83;;
40827;SDS011;26549;50.918;5.338;2024-01-30T07:48:53;3.85;;;2.80;;
40827;SDS011;26549;50.918;5.338;2024-01-30T07:51:19;5.97;;;3.08;;
40827;SDS011;26549;50.918;5.338;2024-01-30T07:53:45;4.22;;;3.08;;
40827;SDS011;26549;50.918;5.338;2024-01-30T07:56:10;5.97;;;3.33;;
40827;SDS011;26549;50.918;5.338;2024-01-30T07:58:37;5.65;;;3.40;;
40827;SDS011;26549;50.918;5.338;2024-01-30T08:01:06;4.22;;;3.00;;
40827;SDS011;26549;50.918;5.338;2024-01-30T08:03:31;6.15;;;3.70;;
40827;SDS011;26549;50.918;5.338;2024-01-30T08:05:58;5.13;;;3.40;;
40827;SDS011;26549;50.918;5.338;2024-01-30T08:08:24;7.32;;;3.17;;
40827;SDS011;26549;50.918;5.338;2024-01-30T08:10:50;8.38;;;3.63;;
40827;SDS011;26549;50.918;5.338;2024-01-30T08:13:17;5.60;;;3.30;;
40827;SDS011;26549;50.918;5.338;2024-01-30T08:15:46;5.72;;;3.17;;
40827;SDS011;26549;50.918;5.338;2024-01-30T08:18:12;5.47;;;3.28;;
40827;SDS011;26549;50.918;5.338;2024-01-30T08:20:37;5.60;;;3.75;;
40827;SDS011;26549;50.918;5.338;2024-01-30T08:23:03;4.95;;;3.55;;
40827;SDS011;26549;50.918;5.338;2024-01-30T08:25:29;6.25;;;3.88;;
40827;SDS011;26549;50.918;5.338;2024-01-30T08:27:55;8.55;;;4.20;;
40827;SDS011;26549;50.918;5.338;2024-01-30T08:30:21;6.35;;;3.72;;
40827;SDS011;26549;50.918;5.338;2024-01-30T08:32:47;5.55;;;4.00;;
40827;SDS011;26549;50.918;5.338;2024-01-30T08:35:13;6.43;;;3.28;;
40827;SDS011;26549;50.918;5.338;2024-01-30T08:37:41;6.38;;;3.70;;
40827;SDS011;26549;50.918;5.338;2024-01-30T08:40:07;5.03;;;3.15;;
40827;SDS011;26549;50.918;5.338;2024-01-30T08:42:36;7.13;;;3.70;;
40827;SDS011;26549;50.918;5.338;2024-01-30T08:45:02;7.13;;;4.13;;
40827;SDS011;26549;50.918;5.338;2024-01-30T08:47:29;5.80;;;3.33;;
40827;SDS011;26549;50.918;5.338;2024-01-30T08:49:56;4.85;;;2.75;;
40827;SDS011;26549;50.918;5.338;2024-01-30T08:52:21;4.00;;;2.92;;
40827;SDS011;26549;50.918;5.338;2024-01-30T08:54:49;5.85;;;3.70;;
40827;SDS011;26549;50.918;5.338;2024-01-30T08:57:15;4.78;;;3.15;;
40827;SDS011;26549;50.918;5.338;2024-01-30T08:59:41;6.30;;;3.15;;
40827;SDS011;26549;50.918;5.338;2024-01-30T09:02:09;5.88;;;3.55;;
40827;SDS011;26549;50.918;5.338;2024-01-30T09:04:37;7.03;;;3.95;;
40827;SDS011;26549;50.918;5.338;2024-01-30T09:07:03;5.70;;;3.03;;
40827;SDS011;26549;50.918;5.338;2024-01-30T09:09:31;5.15;;;3.55;;
40827;SDS011;26549;50.918;5.338;2024-01-30T09:11:56;3.72;;;3.00;;
40827;SDS011;26549;50.918;5.338;2024-01-30T09:14:27;5.68;;;3.55;;
40827;SDS011;26549;50.918;5.338;2024-01-30T09:16:53;7.72;;;4.00;;
40827;SDS011;26549;50.918;5.338;2024-01-30T09:19:20;6.38;;;3.00;;
40827;SDS011;26549;50.918;5.338;2024-01-30T09:21:48;5.55;;;3.20;;
40827;SDS011;26549;50.918;5.338;2024-01-30T09:26:42;5.72;;;3.33;;
40827;SDS011;26549;50.918;5.338;2024-01-30T09:29:08;5.22;;;3.28;;
40827;SDS011;26549;50.918;5.338;2024-01-30T09:31:35;5.35;;;3.58;;
40827;SDS011;26549;50.918;5.338;2024-01-30T09:34:01;8.07;;;3.75;;
40827;SDS011;26549;50.918;5.338;2024-01-30T09:36:27;7.53;;;3.75;;
40827;SDS011;26549;50.918;5.338;2024-01-30T09:38:54;6.72;;;3.15;;
40827;SDS011;26549;50.918;5.338;2024-01-30T09:41:22;4.55;;;3.40;;
40827;SDS011;26549;50.918;5.338;2024-01-30T09:43:51;6.57;;;3.08;;
40827;SDS011;26549;50.918;5.338;2024-01-30T09:46:18;7.22;;;4.38;;
40827;SDS011;26549;50.918;5.338;2024-01-30T09:48:46;8.75;;;3.35;;
40827;SDS011;26549;50.918;5.338;2024-01-30T09:51:15;4.60;;;3.45;;
40827;SDS011;26549;50.918;5.338;2024-01-30T09:53:43;7.78;;;3.80;;
40827;SDS011;26549;50.918;5.338;2024-01-30T09:56:09;5.78;;;3.28;;
40827;SDS011;26549;50.918;5.338;2024-01-30T09:58:36;5.13;;;3.17;;
40827;SDS011;26549;50.918;5.338;2024-01-30T10:01:02;5.75;;;3.78;;
40827;SDS011;26549;50.918;5.338;2024-01-30T10:03:27;6.30;;;3.33;;
40827;SDS011;26549;50.918;5.338;2024-01-30T10:05:53;7.10;;;3.60;;
40827;SDS011;26549;50.918;5.338;2024-01-30T10:08:21;7.68;;;3.58;;
40827;SDS011;26549;50.918;5.338;2024-01-30T10:10:47;5.25;;;3.08;;
40827;SDS011;26549;50.918;5.338;2024-01-30T10:13:13;5.60;;;3.72;;
40827;SDS011;26549;50.918;5.338;2024-01-30T10:15:39;6.22;;;3.28;;
40827;SDS011;26549;50.918;5.338;2024-01-30T10:18:05;13.77;;;3.08;;
40827;SDS011;26549;50.918;5.338;2024-01-30T10:20:32;10.52;;;3.65;;
40827;SDS011;26549;50.918;5.338;2024-01-30T10:22:59;7.63;;;3.97;;
40827;SDS011;26549;50.918;5.338;2024-01-30T10:25:25;7.45;;;3.67;;
40827;SDS011;26549;50.918;5.338;2024-01-30T10:27:54;5.95;;;4.15;;
40827;SDS011;26549;50.918;5.338;2024-01-30T10:30:21;5.72;;;4.00;;
40827;SDS011;26549;50.918;5.338;2024-01-30T10:32:48;9.60;;;3.60;;
40827;SDS011;26549;50.918;5.338;2024-01-30T10:35:14;5.35;;;3.90;;
40827;SDS011;26549;50.918;5.338;2024-01-30T10:37:41;9.73;;;4.03;;
40827;SDS011;26549;50.918;5.338;2024-01-30T10:40:09;9.13;;;3.75;;
40827;SDS011;26549;50.918;5.338;2024-01-30T10:42:39;7.05;;;3.67;;
40827;SDS011;26549;50.918;5.338;2024-01-30T10:45:08;8.77;;;4.35;;
40827;SDS011;26549;50.918;5.338;2024-01-30T10:47:48;7.93;;;3.80;;
40827;SDS011;26549;50.918;5.338;2024-01-30T10:50:15;10.43;;;5.03;;
40827;SDS011;26549;50.918;5.338;2024-01-30T10:52:42;8.20;;;3.78;;
40827;SDS011;26549;50.918;5.338;2024-01-30T10:55:08;10.38;;;4.43;;
40827;SDS011;26549;50.918;5.338;2024-01-30T10:57:35;10.77;;;3.65;;
40827;SDS011;26549;50.918;5.338;2024-01-30T11:00:06;6.95;;;4.63;;
40827;SDS011;26549;50.918;5.338;2024-01-30T11:02:37;7.95;;;3.85;;
40827;SDS011;26549;50.918;5.338;2024-01-30T11:05:05;12.75;;;4.78;;
40827;SDS011;26549;50.918;5.338;2024-01-30T11:07:31;11.32;;;5.05;;
40827;SDS011;26549;50.918;5.338;2024-01-30T11:12:26;6.88;;;3.85;;
40827;SDS011;26549;50.918;5.338;2024-01-30T11:15:06;13.60;;;5.88;;
40827;SDS011;26549;50.918;5.338;2024-01-30T11:17:39;12.95;;;4.22;;
40827;SDS011;26549;50.918;5.338;2024-01-30T11:20:16;10.48;;;4.90;;
40827;SDS011;26549;50.918;5.338;2024-01-30T11:22:45;9.85;;;6.25;;
40827;SDS011;26549;50.918;5.338;2024-01-30T11:25:15;9.52;;;4.28;;
40827;SDS011;26549;50.918;5.338;2024-01-30T11:27:43;12.13;;;4.72;;
40827;SDS011;26549;50.918;5.338;2024-01-30T11:30:09;6.35;;;4.10;;
40827;SDS011;26549;50.918;5.338;2024-01-30T11:32:36;9.80;;;4.45;;
40827;SDS011;26549;50.918;5.338;2024-01-30T11:35:05;7.80;;;4.43;;
40827;SDS011;26549;50.918;5.338;2024-01-30T11:37:36;8.32;;;4.53;;
40827;SDS011;26549;50.918;5.338;2024-01-30T11:40:05;10.07;;;4.60;;
40827;SDS011;26549;50.918;5.338;2024-01-30T11:42:32;9.60;;;5.15;;
40827;SDS011;26549;50.918;5.338;2024-01-30T11:45:00;14.30;;;6.50;;
40827;SDS011;26549;50.918;5.338;2024-01-30T11:47:28;6.22;;;4.15;;
40827;SDS011;26549;50.918;5.338;2024-01-30T11:49:54;10.63;;;5.28;;
40827;SDS011;26549;50.918;5.338;2024-01-30T11:52:20;9.00;;;6.13;;
40827;SDS011;26549;50.918;5.338;2024-01-30T11:54:45;8.88;;;4.93;;
40827;SDS011;26549;50.918;5.338;2024-01-30T11:57:12;16.77;;;6.72;;
40827;SDS011;26549;50.918;5.338;2024-01-30T11:59:37;10.35;;;5.13;;
40827;SDS011;26549;50.918;5.338;2024-01-30T12:02:04;14.15;;;6.28;;
40827;SDS011;26549;50.918;5.338;2024-01-30T12:04:29;15.60;;;4.68;;
40827;SDS011;26549;50.918;5.338;2024-01-30T12:06:55;9.93;;;4.80;;
40827;SDS011;26549;50.918;5.338;2024-01-30T12:09:21;8.93;;;5.32;;
40827;SDS011;26549;50.918;5.338;2024-01-30T12:11:48;7.90;;;5.20;;
40827;SDS011;26549;50.918;5.338;2024-01-30T12:14:15;8.35;;;5.30;;
40827;SDS011;26549;50.918;5.338;2024-01-30T12:16:41;7.47;;;4.82;;
40827;SDS011;26549;50.918;5.338;2024-01-30T12:19:07;8.35;;;4.85;;
40827;SDS011;26549;50.918;5.338;2024-01-30T12:21:33;9.07;;;5.55;;
40827;SDS011;26549;50.918;5.338;2024-01-30T12:24:00;10.90;;;5.00;;
40827;SDS011;26549;50.918;5.338;2024-01-30T12:26:26;11.70;;;6.00;;
40827;SDS011;26549;50.918;5.338;2024-01-30T12:28:55;9.70;;;6.05;;
40827;SDS011;26549;50.918;5.338;2024-01-30T12:31:26;9.85;;;4.65;;
40827;SDS011;26549;50.918;5.338;2024-01-30T12:33:53;13.13;;;5.80;;
40827;SDS011;26549;50.918;5.338;2024-01-30T12:36:19;7.72;;;5.05;;
40827;SDS011;26549;50.918;5.338;2024-01-30T12:38:45;7.97;;;5.32;;
40827;SDS011;26549;50.918;5.338;2024-01-30T12:41:11;7.28;;;4.70;;
40827;SDS011;26549;50.918;5.338;2024-01-30T12:43:37;8.10;;;4.32;;
40827;SDS011;26549;50.918;5.338;2024-01-30T12:46:03;10.25;;;5.25;;
40827;SDS011;26549;50.918;5.338;2024-01-30T12:48:29;8.15;;;4.68;;
40827;SDS011;26549;50.918;5.338;2024-01-30T12:50:55;8.93;;;3.63;;
40827;SDS011;26549;50.918;5.338;2024-01-30T12:53:21;10.85;;;4.25;;
40827;SDS011;26549;50.918;5.338;2024-01-30T12:55:47;9.73;;;3.00;;
40827;SDS011;26549;50.918;5.338;2024-01-30T12:58:14;7.15;;;2.88;;
40827;SDS011;26549;50.918;5.338;2024-01-30T13:00:40;6.55;;;2.30;;
40827;SDS011;26549;50.918;5.338;2024-01-30T13:03:08;5.15;;;2.42;;
40827;SDS011;26549;50.918;5.338;2024-01-30T13:05:35;3.03;;;1.70;;
40827;SDS011;26549;50.918;5.338;2024-01-30T13:08:01;4.55;;;1.83;;
40827;SDS011;26549;50.918;5.338;2024-01-30T13:10:26;6.75;;;2.13;;
40827;SDS011;26549;50.918;5.338;2024-01-30T13:12:52;2.78;;;1.45;;
40827;SDS011;26549;50.918;5.338;2024-01-30T13:15:18;3.55;;;1.15;;
40827;SDS011;26549;50.918;5.338;2024-01-30T13:17:44;12.63;;;4.05;;
40827;SDS011;26549;50.918;5.338;2024-01-30T13:20:12;4.20;;;1.63;;
40827;SDS011;26549;50.918;5.338;2024-01-30T13:22:42;2.35;;;1.15;;
40827;SDS011;26549;50.918;5.338;2024-01-30T13:25:08;3.20;;;1.20;;
40827;SDS011;26549;50.918;5.338;2024-01-30T13:27:34;2.63;;;1.33;;
40827;SDS011;26549;50.918;5.338;2024-01-30T13:30:00;4.72;;;0.98;;
40827;SDS011;26549;50.918;5.338;2024-01-30T13:32:26;1.58;;;0.90;;
40827;SDS011;26549;50.918;5.338;2024-01-30T13:34:52;1.38;;;0.88;;
40827;SDS011;26549;50.918;5.338;2024-01-30T13:37:18;4.25;;;1.27;;
40827;SDS011;26549;50.918;5.338;2024-01-30T13:39:44;3.28;;;1.20;;
40827;SDS011;26549;50.918;5.338;2024-01-30T13:42:09;2.50;;;1.20;;
40827;SDS011;26549;50.918;5.338;2024-01-30T13:44:35;3.88;;;0.80;;
40827;SDS011;26549;50.918;5.338;2024-01-30T13:47:02;3.40;;;0.82;;
40827;SDS011;26549;50.918;5.338;2024-01-30T13:49:28;2.03;;;1.13;;
40827;SDS011;26549;50.918;5.338;2024-01-30T13:51:54;0.88;;;0.55;;
40827;SDS011;26549;50.918;5.338;2024-01-30T13:54:19;1.23;;;0.68;;
40827;SDS011;26549;50.918;5.338;2024-01-30T13:56:45;2.47;;;0.68;;
40827;SDS011;26549;50.918;5.338;2024-01-30T13:59:11;1.40;;;0.70;;
40827;SDS011;26549;50.918;5.338;2024-01-30T14:01:37;2.25;;;0.90;;
40827;SDS011;26549;50.918;5.338;2024-01-30T14:04:02;2.28;;;0.57;;
40827;SDS011;26549;50.918;5.338;2024-01-30T14:06:28;1.25;;;0.60;;
40827;SDS011;26549;50.918;5.338;2024-01-30T14:08:54;1.27;;;0.60;;
40827;SDS011;26549;50.918;5.338;2024-01-30T14:11:20;1.27;;;0.80;;
40827;SDS011;26549;50.918;5.338;2024-01-30T14:13:46;4.10;;;0.40;;
40827;SDS011;26549;50.918;5.338;2024-01-30T14:16:12;7.28;;;1.20;;
40827;SDS011;26549;50.918;5.338;2024-01-30T14:18:37;1.60;;;0.70;;
40827;SDS011;26549;50.918;5.338;2024-01-30T14:21:03;1.08;;;0.52;;
40827;SDS011;26549;50.918;5.338;2024-01-30T14:23:29;2.10;;;0.75;;
40827;SDS011;26549;50.918;5.338;2024-01-30T14:25:55;2.63;;;0.60;;
40827;SDS011;26549;50.918;5.338;2024-01-30T14:28:20;1.83;;;0.40;;
40827;SDS011;26549;50.918;5.338;2024-01-30T14:30:46;1.45;;;0.45;;
40827;SDS011;26549;50.918;5.338;2024-01-30T14:33:12;2.30;;;0.68;;
40827;SDS011;26549;50.918;5.338;2024-01-30T14:35:38;3.40;;;0.60;;
40827;SDS011;26549;50.918;5.338;2024-01-30T14:38:04;1.65;;;0.30;;
40827;SDS011;26549;50.918;5.338;2024-01-30T14:40:30;3.38;;;0.57;;
40827;SDS011;26549;50.918;5.338;2024-01-30T14:42:56;1.38;;;0.63;;
40827;SDS011;26549;50.918;5.338;2024-01-30T14:45:22;0.65;;;0.40;;
40827;SDS011;26549;50.918;5.338;2024-01-30T14:47:47;3.10;;;0.60;;
40827;SDS011;26549;50.918;5.338;2024-01-30T14:50:14;3.42;;;0.70;;
40827;SDS011;26549;50.918;5.338;2024-01-30T14:52:41;3.25;;;0.50;;
40827;SDS011;26549;50.918;5.338;2024-01-30T14:55:07;4.75;;;0.60;;
40827;SDS011;26549;50.918;5.338;2024-01-30T14:57:34;3.30;;;0.55;;
40827;SDS011;26549;50.918;5.338;2024-01-30T15:00:00;0.70;;;0.55;;